Retrouvez également nos données météorologiques sur:

UK Metoffice

Weather Underground

AWEKAS

Citizen Weather Observer Program (CWOP)



Rapports METAR à proximité

   
LFOJ - Montargis
Mise à jour: 04-08-2020 21:30
Ciel dégagé  
Ciel dégagé  
   Vent: Sud 5.6 km/h
Vent: Sud 5.6 km/h
Température: 21°C
Point de rosée: 6°C
Humidité: 38%
Pression atmosphérique: 1017 hPa
Visibilité: More than 10 km
Nébulosité: Ciel dégagé
LFOJ 041930Z AUTO 18003KT CAVOK 21/06 Q1017 NOSIG
LFOJ - Orléans
Mise à jour: 04-08-2020 21:30
Ciel dégagé  
Ciel dégagé  
   Vent: Sud 5.6 km/h
Vent: Sud 5.6 km/h
Température: 21°C
Point de rosée: 6°C
Humidité: 38%
Pression atmosphérique: 1017 hPa
Visibilité: More than 10 km
Nébulosité: Ciel dégagé
LFOJ 041930Z AUTO 18003KT CAVOK 21/06 Q1017 NOSIG
LFQB - Sens
Mise à jour: 04-08-2020 21:30
Ciel dégagé  
Ciel dégagé  
   Vent: varie 5.6 km/h
Vent: varie 5.6 km/h
Température: 22°C
Point de rosée: 6°C
Humidité: 36%
Pression atmosphérique: 1017 hPa
Visibilité: More than 10 km
Nébulosité: Ciel dégagé
LFQB 041930Z AUTO VRB03KT CAVOK 22/06 Q1017
LFQB - Auxerre
Mise à jour: 04-08-2020 21:30
Ciel dégagé  
Ciel dégagé  
   Vent: varie 5.6 km/h
Vent: varie 5.6 km/h
Température: 22°C
Point de rosée: 6°C
Humidité: 36%
Pression atmosphérique: 1017 hPa
Visibilité: More than 10 km
Nébulosité: Ciel dégagé
LFQB 041930Z AUTO VRB03KT CAVOK 22/06 Q1017
LFPO - Paris
Mise à jour: 04-08-2020 21:30
Ciel dégagé  
Ciel dégagé  
   Vent: SSO 7.4 km/h
Vent: SSO 7.4 km/h
Température: 22°C
Point de rosée: 6°C
Humidité: 36%
Pression atmosphérique: 1017 hPa
Visibilité: More than 10 km
Nébulosité: Ciel dégagé
LFPO 041930Z 21004KT CAVOK 22/06 Q1017 NOSIG
LFLX - Bourges
Mise à jour: 04-08-2020 21:30
Ciel dégagé  
Ciel dégagé  
   Vent: NNO 7.4 km/h
Vent: NNO 7.4 km/h
Température: 20°C
Point de rosée: 7°C
Humidité: 43%
Pression atmosphérique: 1017 hPa
Visibilité: More than 10 km
Nébulosité: Ciel dégagé
LFLX 041930Z AUTO 33004KT CAVOK 20/07 Q1017 NOSIG

Original script by  Saratoga-weather.org Adapted for the template by  Weerstation Leuven